Map

Track Data

SID SEASON NUMBER BASIN SUBBASIN NAME ISO_TIME NATURE LAT LON WMO_WIND WMO_PRES WMO_AGENCY TRACK_TYPE DIST2LAND LANDFALL IFLAG USA_AGENCY USA_ATCF_ID USA_LAT USA_LON USA_RECORD USA_STATUS USA_WIND USA_PRES USA_SSHS USA_R34_NE USA_R34_SE USA_R34_SW USA_R34_NW USA_R50_NE USA_R50_SE USA_R50_SW USA_R50_NW USA_R64_NE USA_R64_SE USA_R64_SW USA_R64_NW USA_POCI USA_ROCI USA_RMW USA_EYE TOKYO_LAT TOKYO_LON TOKYO_GRADE TOKYO_WIND TOKYO_PRES TOKYO_R50_DIR TOKYO_R50_LONG TOKYO_R50_SHORT TOKYO_R30_DIR TOKYO_R30_LONG TOKYO_R30_SHORT TOKYO_LAND CMA_LAT CMA_LON CMA_CAT CMA_WIND CMA_PRES HKO_LAT HKO_LON HKO_CAT HKO_WIND HKO_PRES NEWDELHI_LAT NEWDELHI_LON NEWDELHI_GRADE NEWDELHI_WIND NEWDELHI_PRES NEWDELHI_CI NEWDELHI_DP NEWDELHI_POCI REUNION_LAT REUNION_LON REUNION_TYPE REUNION_WIND REUNION_PRES REUNION_TNUM REUNION_CI REUNION_RMW REUNION_R34_NE REUNION_R34_SE REUNION_R34_SW REUNION_R34_NW REUNION_R50_NE REUNION_R50_SE REUNION_R50_SW REUNION_R50_NW REUNION_R64_NE REUNION_R64_SE REUNION_R64_SW REUNION_R64_NW BOM_LAT BOM_LON BOM_TYPE BOM_WIND BOM_PRES BOM_TNUM BOM_CI BOM_RMW BOM_R34_NE BOM_R34_SE BOM_R34_SW BOM_R34_NW BOM_R50_NE BOM_R50_SE BOM_R50_SW BOM_R50_NW BOM_R64_NE BOM_R64_SE BOM_R64_SW BOM_R64_NW BOM_ROCI BOM_POCI BOM_EYE BOM_POS_METHOD BOM_PRES_METHOD NADI_LAT NADI_LON NADI_CAT NADI_WIND NADI_PRES WELLINGTON_LAT WELLINGTON_LON WELLINGTON_WIND WELLINGTON_PRES DS824_LAT DS824_LON DS824_STAGE DS824_WIND DS824_PRES TD9636_LAT TD9636_LON TD9636_STAGE TD9636_WIND TD9636_PRES TD9635_LAT TD9635_LON TD9635_WIND TD9635_PRES TD9635_ROCI NEUMANN_LAT NEUMANN_LON NEUMANN_CLASS NEUMANN_WIND NEUMANN_PRES MLC_LAT MLC_LON MLC_CLASS MLC_WIND MLC_PRES USA_GUST BOM_GUST BOM_GUST_PER REUNION_GUST REUNION_GUST_PER USA_SEAHGT USA_SEARAD_NE USA_SEARAD_SE USA_SEARAD_SW USA_SEARAD_NW STORM_SPEED STORM_DIR
1943246N18119 1943 59 WP MM NOT_NAMED 1943-09-03 00:00:00 NR 18.2000 118.800 main 172 172 __________O___ -1 18.2000 118.800 3 9 277
1943246N18119 1943 59 WP MM NOT_NAMED 1943-09-03 03:00:00 NR 18.2589 118.321 main 225 225 __________P___ -1 18.2589 118.321 3 9 277
1943246N18119 1943 59 WP MM NOT_NAMED 1943-09-03 06:00:00 NR 18.3137 117.853 main 265 265 __________P___ -1 18.3137 117.853 3 9 277
1943246N18119 1943 59 WP MM NOT_NAMED 1943-09-03 09:00:00 NR 18.3617 117.409 main 319 319 __________P___ -1 18.3617 117.409 3 8 276
1943246N18119 1943 59 WP MM NOT_NAMED 1943-09-03 12:00:00 NR 18.4000 117.000 main 360 360 __________O___ -1 18.4000 117.000 4 7 275
1943246N18119 1943 59 WP MM NOT_NAMED 1943-09-03 15:00:00 NR 18.4292 116.635 main 401 401 __________P___ -1 18.4292 116.635 4 7 275
1943246N18119 1943 59 WP MM NOT_NAMED 1943-09-03 18:00:00 NR 18.4619 116.305 main 434 434 __________P___ -1 18.4619 116.305 4 6 278
1943246N18119 1943 59 WP MM NOT_NAMED 1943-09-03 21:00:00 NR 18.5137 115.997 main 460 438 __________P___ -1 18.5137 115.997 4 6 284
1943246N18119 1943 59 WP MM NOT_NAMED 1943-09-04 00:00:00 NR 18.6000 115.700 main 438 418 __________O___ -1 18.6000 115.700 4 6 293
1943246N18119 1943 59 WP MM NOT_NAMED 1943-09-04 03:00:00 NR 18.7509 115.409 main 407 389 __________P___ -1 18.7509 115.409 4 6 301
1943246N18119 1943 59 WP MM NOT_NAMED 1943-09-04 06:00:00 NR 18.9344 115.123 main 389 361 __________P___ -1 18.9344 115.123 4 7 304
1943246N18119 1943 59 WP MM NOT_NAMED 1943-09-04 09:00:00 NR 19.1258 114.825 main 361 330 __________P___ -1 19.1258 114.825 4 7 302
1943246N18119 1943 59 WP MM NOT_NAMED 1943-09-04 12:00:00 NR 19.3000 114.500 main 330 306 __________O___ -1 19.3000 114.500 4 7 296
1943246N18119 1943 59 WP MM NOT_NAMED 1943-09-04 15:00:00 NR 19.4377 114.137 main 302 280 __________P___ -1 19.4377 114.137 4 8 289
1943246N18119 1943 59 WP MM NOT_NAMED 1943-09-04 18:00:00 NR 19.5523 113.745 main 267 251 __________P___ -1 19.5523 113.745 4 8 285
1943246N18119 1943 59 WP MM NOT_NAMED 1943-09-04 21:00:00 NR 19.6407 113.331 main 240 199 __________P___ -1 19.6407 113.331 4 8 281
1943246N18119 1943 59 WP MM NOT_NAMED 1943-09-05 00:00:00 NR 19.7000 112.900 main 199 157 __________O___ -1 19.7000 112.900 4 8 273
1943246N18119 1943 59 WP MM NOT_NAMED 1943-09-05 03:00:00 NR 19.6844 112.431 main 147 104 __________P___ -1 19.6844 112.431 4 9 267
1943246N18119 1943 59 WP MM NOT_NAMED 1943-09-05 06:00:00 NR 19.6480 111.954 main 104 52 __________P___ -1 19.6480 111.954 4 9 267
1943246N18119 1943 59 WP MM NOT_NAMED 1943-09-05 09:00:00 NR 19.6376 111.500 main 52 15 __________P___ -1 19.6376 111.500 4 8 274
1943246N18119 1943 59 WP MM NOT_NAMED 1943-09-05 12:00:00 NR 19.7000 111.100 main 15 0 __________O___ -1 19.7000 111.100 4 7 289
1943246N18119 1943 59 WP MM NOT_NAMED 1943-09-05 15:00:00 NR 19.8697 110.777 main 0 0 __________P___ -1 19.8697 110.777 4 7 308
1943246N18119 1943 59 WP MM NOT_NAMED 1943-09-05 18:00:00 NR 20.1296 110.516 main 10 0 __________P___ -1 20.1296 110.516 4 7 322
1943246N18119 1943 59 WP MM NOT_NAMED 1943-09-05 21:00:00 NR 20.4498 110.298 main 0 0 __________P___ -1 20.4498 110.298 4 8 330
1943246N18119 1943 59 WP MM NOT_NAMED 1943-09-06 00:00:00 NR 20.8000 110.100 main 0 __________O___ -1 20.8000 110.100 4 8 332

Digital Typhoon Data and Search

About IBTrACS Database

This database is a web-friendly format of International Best Track Archive for Climate Stewardship (IBTrACS), a global best track data archive curated by NOAA dating back to 1842.

Updated: 2021-10-27